Time;durP1;ratioP1;P1;durP2;ratioP2;P2;SDS_P1;SDS_P2;PMS_P1;PMS_P2;Temp;Humidity;BMP_temperature;BMP_pressure;BME280_temperature;BME280_humidity;BME280_pressure;Samples;Min_cycle;Max_cycle;Signal;HPM_P1;HPM_P2
2022/08/03 00:02:00;;;;;;;1.57;1.47;;;26.70;75.50;;;;;;4994023;28;20451;-81
2022/08/03 00:04:27;;;;;;;1.50;1.40;;;26.70;75.50;;;;;;4994271;28;20540;-82
2022/08/03 00:06:54;;;;;;;1.47;1.37;;;26.70;75.50;;;;;;4994318;28;20540;-81
2022/08/03 00:09:21;;;;;;;1.77;1.67;;;26.70;75.50;;;;;;4993830;28;20444;-82
2022/08/03 00:11:49;;;;;;;1.57;1.47;;;26.70;75.50;;;;;;4994121;28;20512;-84
2022/08/03 00:14:16;;;;;;;2.00;1.90;;;26.70;75.40;;;;;;4993747;28;21007;-81
2022/08/03 00:16:43;;;;;;;1.60;1.50;;;26.70;76.30;;;;;;4994005;28;20491;-83
2022/08/03 00:19:10;;;;;;;1.70;1.60;;;26.70;75.50;;;;;;4994043;28;20523;-86
2022/08/03 00:21:37;;;;;;;1.43;1.33;;;26.70;75.50;;;;;;4993970;28;20539;-81
2022/08/03 00:24:04;;;;;;;1.83;1.73;;;26.70;75.50;;;;;;4993836;28;20825;-81
2022/08/03 00:26:31;;;;;;;1.60;1.50;;;26.70;75.50;;;;;;4993873;28;20480;-81
2022/08/03 00:28:59;;;;;;;1.70;1.60;;;26.70;75.50;;;;;;4993797;28;20475;-81
2022/08/03 00:31:26;;;;;;;1.70;1.60;;;26.70;75.50;;;;;;4993806;28;20451;-86
2022/08/03 00:33:53;;;;;;;1.60;1.50;;;26.70;75.50;;;;;;4993987;28;20445;-82
2022/08/03 00:36:20;;;;;;;1.40;1.30;;;26.70;75.50;;;;;;4993994;28;20547;-82
2022/08/03 00:38:47;;;;;;;1.67;1.57;;;26.70;75.50;;;;;;4993994;28;20538;-81
2022/08/03 00:41:14;;;;;;;1.30;1.20;;;26.70;75.50;;;;;;4993896;28;20531;-80
2022/08/03 00:43:41;;;;;;;1.87;1.77;;;26.70;75.50;;;;;;4993766;28;20987;-81
2022/08/03 00:46:09;;;;;;;1.50;1.40;;;26.70;75.50;;;;;;4993747;28;20480;-85
2022/08/03 00:48:36;;;;;;;1.60;1.50;;;26.70;75.50;;;;;;4993730;28;20480;-86
2022/08/03 00:51:04;;;;;;;1.50;1.40;;;26.70;75.50;;;;;;4993879;28;20491;-81
2022/08/03 00:53:31;;;;;;;1.93;1.83;;;26.70;75.60;;;;;;4993526;28;20851;-81
2022/08/03 00:55:59;;;;;;;1.60;1.50;;;26.70;75.50;;;;;;4993650;28;20544;-81
2022/08/03 00:58:26;;;;;;;1.43;1.33;;;26.70;75.50;;;;;;4993461;28;20440;-81
2022/08/03 01:00:52;;;;;;;1.50;1.40;;;26.70;75.50;;;;;;4993705;28;21011;-86
2022/08/03 01:03:21;;;;;;;1.50;1.40;;;26.70;75.50;;;;;;4993521;28;20487;-81
2022/08/03 01:05:54;;;;;;;1.60;1.50;;;26.70;75.60;;;;;;4993559;28;20448;-81
2022/08/03 01:08:28;;;;;;;1.40;1.30;;;26.70;75.60;;;;;;4993686;28;20546;-86
2022/08/03 01:11:03;;;;;;;1.50;1.40;;;26.70;75.60;;;;;;4993563;28;20447;-81
2022/08/03 01:13:39;;;;;;;1.50;1.40;;;26.70;75.60;;;;;;4993746;28;20570;-81
2022/08/03 01:16:12;;;;;;;1.30;1.20;;;26.70;75.60;;;;;;4993562;28;20444;-85
2022/08/03 01:18:46;;;;;;;1.40;1.30;;;26.70;75.60;;;;;;4993374;28;20472;-81
2022/08/03 01:21:20;;;;;;;1.40;1.30;;;26.80;75.70;;;;;;4993708;28;20863;-81
2022/08/03 01:24:06;;;;;;;1.47;1.37;;;26.70;75.60;;;;;;4993436;28;20993;-86
2022/08/03 01:27:00;;;;;;;1.23;1.13;;;26.80;75.70;;;;;;4993235;28;20528;-81
2022/08/03 01:29:58;;;;;;;1.30;1.20;;;26.70;75.60;;;;;;4993483;28;20448;-86
2022/08/03 01:32:32;;;;;;;1.40;1.30;;;26.70;75.50;;;;;;4993453;28;20847;-81
2022/08/03 01:35:03;;;;;;;1.70;1.60;;;26.70;75.70;;;;;;4993258;28;20487;-82
2022/08/03 01:37:36;;;;;;;1.40;1.10;;;26.70;75.70;;;;;;4996495;28;20441;-85
2022/08/03 01:40:06;;;;;;;1.60;1.50;;;26.70;75.60;;;;;;4996916;28;20511;-82
2022/08/03 01:42:34;;;;;;;1.57;1.47;;;26.70;75.60;;;;;;4996843;28;20454;-81
2022/08/03 01:45:04;;;;;;;1.70;1.60;;;26.70;75.60;;;;;;4996671;28;20449;-83
2022/08/03 01:47:32;;;;;;;1.40;1.30;;;26.70;75.70;;;;;;4996862;28;20443;-85
2022/08/03 01:50:01;;;;;;;1.40;1.27;;;26.70;76.50;;;;;;4996878;28;20451;-81
2022/08/03 01:52:30;;;;;;;1.47;1.37;;;26.70;75.60;;;;;;4996582;28;20829;-81
2022/08/03 01:54:58;;;;;;;1.60;1.50;;;26.70;75.70;;;;;;4996328;28;20534;-81
2022/08/03 01:57:27;;;;;;;1.57;1.47;;;26.70;75.70;;;;;;4996581;28;20797;-81
2022/08/03 01:59:57;;;;;;;1.50;1.40;;;26.70;75.70;;;;;;4996662;28;20925;-82
2022/08/03 02:02:26;;;;;;;1.77;1.67;;;26.70;75.70;;;;;;4996675;28;20541;-81
2022/08/03 02:04:55;;;;;;;1.63;1.53;;;26.70;75.70;;;;;;4996337;28;20448;-85
2022/08/03 02:07:23;;;;;;;1.60;1.50;;;26.70;75.70;;;;;;4996419;28;20874;-81
2022/08/03 02:09:52;;;;;;;1.37;1.27;;;26.70;75.70;;;;;;4996209;28;20455;-85
2022/08/03 02:12:20;;;;;;;1.53;1.43;;;26.70;75.70;;;;;;4996468;28;21017;-86
2022/08/03 02:14:49;;;;;;;1.40;1.30;;;26.70;75.70;;;;;;4996194;28;20444;-85
2022/08/03 02:17:16;;;;;;;1.57;1.47;;;26.70;75.70;;;;;;4996247;28;20440;-84
2022/08/03 02:19:45;;;;;;;1.37;1.27;;;26.70;75.70;;;;;;4996096;28;20540;-84
2022/08/03 02:22:13;;;;;;;1.57;1.47;;;26.70;76.60;;;;;;4995966;28;20447;-85
2022/08/03 02:24:40;;;;;;;1.30;1.20;;;26.70;75.70;;;;;;4996072;28;20464;-85
2022/08/03 02:27:14;;;;;;;1.30;1.20;;;26.70;75.70;;;;;;4996129;28;20440;-81
2022/08/03 02:29:44;;;;;;;1.37;1.27;;;26.70;76.50;;;;;;4995904;28;20436;-80
2022/08/03 02:32:14;;;;;;;1.53;1.43;;;26.70;75.80;;;;;;4996163;28;20562;-80
2022/08/03 02:34:46;;;;;;;1.30;1.20;;;26.70;75.70;;;;;;4995434;28;20452;-81
2022/08/03 02:37:14;;;;;;;1.63;1.53;;;26.70;75.70;;;;;;4995664;28;20539;-84
2022/08/03 02:39:42;;;;;;;1.40;1.30;;;26.70;75.70;;;;;;4995460;28;20832;-85
2022/08/03 02:42:10;;;;;;;1.87;1.77;;;26.70;75.80;;;;;;4995918;28;20464;-81
2022/08/03 02:44:38;;;;;;;1.63;1.37;;;26.70;76.50;;;;;;4995475;28;20544;-85
2022/08/03 02:47:11;;;;;;;1.60;1.50;;;26.70;75.80;;;;;;4996037;28;20809;-81
2022/08/03 02:49:38;;;;;;;1.30;1.20;;;26.70;75.70;;;;;;4995530;28;20441;-81
2022/08/03 02:52:10;;;;;;;1.40;1.30;;;26.70;75.70;;;;;;4995439;28;20440;-86
2022/08/03 02:54:38;;;;;;;1.57;1.47;;;26.70;75.70;;;;;;4995297;28;20491;-82
2022/08/03 02:57:07;;;;;;;1.53;1.43;;;26.70;75.70;;;;;;4995554;28;20444;-85
2022/08/03 02:59:35;;;;;;;1.40;1.30;;;26.70;75.70;;;;;;4995415;28;20519;-81
2022/08/03 03:02:03;;;;;;;1.40;1.30;;;26.70;75.70;;;;;;4995405;28;20542;-85
2022/08/03 03:04:31;;;;;;;1.60;1.50;;;26.70;75.70;;;;;;4995112;28;20440;-81
2022/08/03 03:06:58;;;;;;;1.43;1.33;;;26.70;75.70;;;;;;4995352;28;20436;-81
2022/08/03 03:09:27;;;;;;;1.70;1.50;;;26.70;75.70;;;;;;4995364;28;20441;-83
2022/08/03 03:11:54;;;;;;;1.40;1.30;;;26.70;75.70;;;;;;4995096;28;20436;-84
2022/08/03 03:14:23;;;;;;;1.60;1.50;;;26.70;75.70;;;;;;4994919;28;20558;-84
2022/08/03 03:16:51;;;;;;;1.80;1.70;;;26.70;75.70;;;;;;4995244;28;20444;-86
2022/08/03 03:19:19;;;;;;;1.63;1.40;;;26.70;75.60;;;;;;4995267;28;20800;-85
2022/08/03 03:21:47;;;;;;;1.40;1.30;;;26.70;75.60;;;;;;4994951;28;20444;-86
2022/08/03 03:24:16;;;;;;;1.27;1.17;;;26.70;75.70;;;;;;4994806;28;20540;-82
2022/08/03 03:26:44;;;;;;;1.80;1.70;;;26.70;75.60;;;;;;4995034;28;20447;-82
2022/08/03 03:29:11;;;;;;;1.40;1.30;;;26.70;75.60;;;;;;4994605;28;20527;-81
2022/08/03 03:31:39;;;;;;;1.20;1.10;;;26.70;75.60;;;;;;4995140;28;20440;-81
2022/08/03 03:34:06;;;;;;;1.57;1.47;;;26.70;75.60;;;;;;4994491;28;20569;-81
2022/08/03 03:36:33;;;;;;;1.40;1.30;;;26.70;75.60;;;;;;4994665;28;20451;-81
2022/08/03 03:39:00;;;;;;;1.40;1.30;;;26.70;75.60;;;;;;4994641;28;20571;-80
2022/08/03 03:41:27;;;;;;;1.50;1.40;;;26.70;75.60;;;;;;4994894;28;20484;-81
2022/08/03 03:43:55;;;;;;;1.50;1.40;;;26.70;75.60;;;;;;4994574;28;20531;-81
2022/08/03 03:46:22;;;;;;;1.60;1.50;;;26.70;76.40;;;;;;4994514;28;20820;-80
2022/08/03 03:48:49;;;;;;;1.50;1.40;;;26.70;75.60;;;;;;4994925;28;20447;-85
2022/08/03 03:51:17;;;;;;;1.30;1.20;;;26.70;75.60;;;;;;4994587;28;20539;-82
2022/08/03 03:53:55;;;;;;;1.10;1.00;;;26.70;75.60;;;;;;4994096;28;21051;-83
2022/08/03 03:56:22;;;;;;;1.43;1.33;;;26.70;76.40;;;;;;4994547;28;20448;-83
2022/08/03 03:58:49;;;;;;;1.30;1.20;;;26.70;75.50;;;;;;4994032;28;20441;-81
2022/08/03 04:01:17;;;;;;;1.63;1.53;;;26.70;75.50;;;;;;4994324;28;20458;-81
2022/08/03 04:03:44;;;;;;;1.53;1.43;;;26.70;75.60;;;;;;4994044;28;20541;-82
2022/08/03 04:11:45;;;;;;;1.40;1.30;;;26.70;75.50;;;;;;4994153;28;20916;-82
2022/08/03 04:14:15;;;;;;;1.33;1.23;;;26.70;75.50;;;;;;4993732;28;20484;-81
2022/08/03 04:16:48;;;;;;;1.70;1.60;;;26.70;75.50;;;;;;4994289;28;20448;-81
2022/08/03 04:19:18;;;;;;;1.47;1.37;;;26.70;75.50;;;;;;4993925;28;20455;-86
2022/08/03 04:21:49;;;;;;;1.70;1.60;;;26.70;75.50;;;;;;4994194;28;20448;-81
2022/08/03 04:24:17;;;;;;;1.83;1.27;;;26.70;75.60;;;;;;4993682;28;20559;-81
2022/08/03 04:26:46;;;;;;;1.40;1.30;;;26.70;75.50;;;;;;4994180;28;20457;-86
2022/08/03 04:29:14;;;;;;;1.43;1.33;;;26.70;75.40;;;;;;4994328;28;20536;-81
2022/08/03 04:31:45;;;;;;;1.30;1.20;;;26.70;75.50;;;;;;4993967;28;20436;-85
2022/08/03 04:34:12;;;;;;;1.40;1.30;;;26.70;75.40;;;;;;4993631;28;20483;-82
2022/08/03 04:36:48;;;;;;;1.30;1.20;;;26.70;75.50;;;;;;4993752;28;20544;-85
2022/08/03 04:39:19;;;;;;;1.40;1.30;;;26.70;75.50;;;;;;4993781;28;20498;-82
2022/08/03 04:41:48;;;;;;;1.53;1.43;;;26.70;75.70;;;;;;4993884;28;20532;-81
2022/08/03 04:44:16;;;;;;;1.60;1.50;;;26.70;76.00;;;;;;4993373;28;20457;-80
2022/08/03 04:46:45;;;;;;;1.40;1.30;;;26.70;76.00;;;;;;4993779;28;20527;-80
2022/08/03 04:49:12;;;;;;;1.30;1.20;;;26.70;75.60;;;;;;4993814;28;20479;-80
2022/08/03 04:51:39;;;;;;;1.47;1.37;;;26.70;75.50;;;;;;4993701;28;20444;-80
2022/08/03 04:54:07;;;;;;;1.43;1.33;;;26.70;75.40;;;;;;4991535;28;20648;-82
2022/08/03 04:56:34;;;;;;;1.80;1.70;;;26.70;75.30;;;;;;4992265;28;20441;-82
2022/08/03 04:59:01;;;;;;;1.80;1.70;;;26.70;75.40;;;;;;4990724;28;20531;-82
2022/08/03 05:01:28;;;;;;;4.70;2.20;;;26.70;76.20;;;;;;4973492;28;20449;-81
2022/08/03 05:03:57;;;;;;;2.90;2.13;;;26.70;76.40;;;;;;4973598;28;20485;-82
2022/08/03 05:06:23;;;;;;;2.93;2.37;;;26.70;76.90;;;;;;4985033;28;20448;-82
2022/08/03 05:08:50;;;;;;;3.97;2.63;;;26.70;77.10;;;;;;4976179;28;20445;-83
2022/08/03 05:11:17;;;;;;;2.50;2.30;;;26.60;77.00;;;;;;4975209;28;20560;-83
2022/08/03 05:13:45;;;;;;;4.70;3.00;;;26.60;77.10;;;;;;4977559;28;20536;-82
2022/08/03 05:16:13;;;;;;;3.43;3.13;;;26.60;77.10;;;;;;4977989;28;20447;-83
2022/08/03 05:18:39;;;;;;;4.90;2.33;;;26.70;77.40;;;;;;4977908;28;20500;-84
2022/08/03 05:21:08;;;;;;;5.73;3.10;;;26.70;77.70;;;;;;4977905;28;20520;-82
2022/08/03 05:23:36;;;;;;;7.43;2.93;;;26.70;78.00;;;;;;4977713;28;20553;-83
2022/08/03 05:26:03;;;;;;;3.53;3.23;;;26.60;78.10;;;;;;4977560;28;20477;-83
2022/08/03 05:28:30;;;;;;;5.60;3.37;;;26.70;78.30;;;;;;4977844;28;20488;-84
2022/08/03 05:30:57;;;;;;;2.80;2.50;;;26.70;78.50;;;;;;4977732;28;20532;-82
2022/08/03 05:33:24;;;;;;;3.13;2.80;;;26.70;78.40;;;;;;4977487;28;20580;-82
2022/08/03 05:35:51;;;;;;;3.70;3.03;;;26.60;78.20;;;;;;4977570;28;20805;-83
2022/08/03 05:38:19;;;;;;;3.07;2.73;;;26.60;78.10;;;;;;4977504;28;21063;-82
2022/08/03 05:40:46;;;;;;;2.83;2.53;;;26.60;78.30;;;;;;4977581;28;20445;-82
2022/08/03 05:43:13;;;;;;;3.83;3.00;;;26.70;78.40;;;;;;4977393;28;20459;-82
2022/08/03 05:45:40;;;;;;;3.10;2.40;;;26.60;78.20;;;;;;4977374;28;20536;-81
2022/08/03 05:48:07;;;;;;;3.33;3.00;;;26.60;77.90;;;;;;4977495;28;20528;-82
2022/08/03 05:50:35;;;;;;;2.50;2.30;;;26.60;78.80;;;;;;4977192;28;20456;-85
2022/08/03 05:53:02;;;;;;;5.43;2.77;;;26.60;77.80;;;;;;4977113;28;20476;-82
2022/08/03 05:55:30;;;;;;;2.60;2.40;;;26.60;78.00;;;;;;4977426;28;20548;-83
2022/08/03 05:57:57;;;;;;;3.37;3.10;;;26.70;78.30;;;;;;4977302;28;21002;-82
2022/08/03 06:00:24;;;;;;;2.40;2.20;;;26.60;78.20;;;;;;4977293;28;20862;-85
2022/08/03 06:02:51;;;;;;;2.87;2.57;;;26.70;79.10;;;;;;4977402;28;20438;-82
2022/08/03 06:05:17;;;;;;;5.00;2.23;;;26.60;78.10;;;;;;4977057;28;20445;-82
2022/08/03 06:07:45;;;;;;;2.70;2.50;;;26.70;78.00;;;;;;4976844;28;20472;-84
2022/08/03 06:10:12;;;;;;;2.67;2.47;;;26.70;77.90;;;;;;4976965;28;20445;-84
2022/08/03 06:12:40;;;;;;;2.80;2.40;;;26.70;77.70;;;;;;4981885;28;20453;-86
2022/08/03 06:15:09;;;;;;;3.43;2.47;;;26.70;77.50;;;;;;4985525;28;20492;-88
2022/08/03 06:17:44;;;;;;;2.60;2.40;;;26.70;77.40;;;;;;5014340;28;20491;-88
2022/08/03 06:20:12;;;;;;;2.73;2.53;;;26.70;77.30;;;;;;4979689;28;20441;-87
2022/08/03 06:22:39;;;;;;;3.00;2.33;;;26.60;77.40;;;;;;4981135;28;20548;-85
2022/08/03 06:25:06;;;;;;;2.90;2.20;;;26.70;77.60;;;;;;4991100;28;20455;-85
2022/08/03 06:27:33;;;;;;;2.50;2.30;;;26.70;77.60;;;;;;4987561;28;20518;-85
2022/08/03 06:30:02;;;;;;;2.60;2.40;;;26.70;77.50;;;;;;4977036;28;20456;-86
2022/08/03 06:32:29;;;;;;;3.27;3.07;;;26.70;77.40;;;;;;4977314;28;20441;-87
2022/08/03 06:34:55;;;;;;;2.17;2.03;;;26.70;77.30;;;;;;4978310;28;20591;-87
2022/08/03 06:37:23;;;;;;;2.43;2.00;;;26.70;77.20;;;;;;4976723;28;20761;-89
2022/08/03 06:39:50;;;;;;;2.97;2.43;;;26.70;77.10;;;;;;4976227;28;20477;-87
2022/08/03 06:42:17;;;;;;;1.93;1.80;;;26.70;77.20;;;;;;4976127;28;20964;-85
2022/08/03 06:44:43;;;;;;;2.80;1.70;;;26.70;77.20;;;;;;4987094;28;20468;-86
2022/08/03 06:47:11;;;;;;;2.80;2.60;;;26.70;77.20;;;;;;4983262;28;20544;-83
2022/08/03 06:49:40;;;;;;;3.13;2.30;;;26.70;77.20;;;;;;4979288;28;20437;-83
2022/08/03 06:52:07;;;;;;;3.10;2.23;;;26.70;77.30;;;;;;4976630;28;20448;-87
2022/08/03 06:54:35;;;;;;;2.70;1.90;;;26.70;77.30;;;;;;4976171;28;20583;-84
2022/08/03 06:57:02;;;;;;;2.40;2.27;;;26.70;77.10;;;;;;4976375;28;20823;-84
2022/08/03 06:59:29;;;;;;;2.37;2.17;;;26.70;77.20;;;;;;4976191;28;20449;-85
2022/08/03 07:01:56;;;;;;;2.33;2.13;;;26.70;77.10;;;;;;4976527;28;20524;-85
2022/08/03 07:04:24;;;;;;;2.17;2.07;;;26.70;77.30;;;;;;4976241;28;20445;-86
2022/08/03 07:06:51;;;;;;;2.23;1.60;;;26.70;77.40;;;;;;4975961;28;20445;-86
2022/08/03 07:09:18;;;;;;;2.17;1.90;;;26.70;77.40;;;;;;4975933;28;20481;-84
2022/08/03 07:11:44;;;;;;;1.70;1.60;;;26.70;77.40;;;;;;4975371;28;20488;-84
2022/08/03 07:14:11;;;;;;;2.37;2.17;;;26.70;77.40;;;;;;4974667;28;20489;-84
2022/08/03 07:16:38;;;;;;;2.40;2.20;;;26.70;77.40;;;;;;4975026;28;20545;-86
2022/08/03 07:19:05;;;;;;;2.33;2.13;;;26.70;77.40;;;;;;4974910;28;20544;-85
2022/08/03 07:21:33;;;;;;;2.50;2.30;;;26.70;77.30;;;;;;4974891;28;20460;-84
2022/08/03 07:24:00;;;;;;;2.60;2.30;;;26.70;77.20;;;;;;4974801;28;21027;-86
2022/08/03 07:26:27;;;;;;;2.33;2.13;;;26.70;77.00;;;;;;4975056;28;20452;-84
2022/08/03 07:28:54;;;;;;;2.90;2.17;;;26.70;77.00;;;;;;4975732;28;20450;-86
2022/08/03 07:31:20;;;;;;;2.70;2.10;;;26.70;76.90;;;;;;4975567;28;20476;-85
2022/08/03 07:33:47;;;;;;;2.63;2.07;;;26.70;76.80;;;;;;4974950;28;20809;-86
2022/08/03 07:36:14;;;;;;;2.47;1.93;;;26.70;77.60;;;;;;4975424;28;20540;-85
2022/08/03 07:38:42;;;;;;;2.50;2.27;;;26.70;76.60;;;;;;4975116;28;20509;-84
2022/08/03 07:41:09;;;;;;;2.20;1.97;;;26.70;76.60;;;;;;4974943;28;20516;-83
2022/08/03 07:43:36;;;;;;;2.30;2.20;;;26.70;77.10;;;;;;4975137;28;20540;-84
2022/08/03 07:46:03;;;;;;;1.87;1.77;;;26.70;77.20;;;;;;4975263;28;20441;-87
2022/08/03 07:48:30;;;;;;;2.50;2.13;;;26.70;76.30;;;;;;4976292;28;20586;-90
2022/08/03 07:50:57;;;;;;;2.20;2.00;;;26.70;76.30;;;;;;4975741;28;21008;-85
2022/08/03 07:53:23;;;;;;;4.10;1.90;;;26.70;76.20;;;;;;4974531;28;20469;-93
2022/08/03 07:55:52;;;;;;;2.63;2.00;;;26.70;76.30;;;;;;4974019;28;20496;-86
2022/08/03 07:58:18;;;;;;;3.03;2.10;;;26.70;76.30;;;;;;4974012;28;20453;-92
2022/08/03 08:00:45;;;;;;;2.20;1.90;;;26.70;76.40;;;;;;4974771;28;20933;-93
2022/08/03 08:03:12;;;;;;;2.10;1.90;;;26.70;77.10;;;;;;4974632;28;20445;-87
2022/08/03 08:05:39;;;;;;;2.63;1.90;;;26.70;76.20;;;;;;4974330;28;20797;-94
2022/08/03 08:08:07;;;;;;;2.33;2.10;;;26.70;76.20;;;;;;4974754;28;20441;-85
2022/08/03 08:10:34;;;;;;;2.23;2.13;;;26.70;76.30;;;;;;4975221;28;20441;-83
2022/08/03 08:13:03;;;;;;;1.80;1.70;;;26.70;76.20;;;;;;4975486;28;20840;-82
2022/08/03 08:15:30;;;;;;;2.10;2.00;;;26.70;76.20;;;;;;4974967;28;20842;-83
2022/08/03 08:17:59;;;;;;;2.10;1.90;;;26.70;76.20;;;;;;4975237;28;20485;-82
2022/08/03 08:20:28;;;;;;;2.33;2.07;;;26.70;76.10;;;;;;4975121;28;20858;-85
2022/08/03 08:22:55;;;;;;;1.87;1.77;;;26.70;76.10;;;;;;4974978;28;20548;-90
2022/08/03 08:25:22;;;;;;;1.80;1.70;;;26.70;76.10;;;;;;4975092;28;20481;-84
2022/08/03 08:27:50;;;;;;;2.37;2.17;;;26.70;76.10;;;;;;4974984;28;20532;-81
2022/08/03 08:30:20;;;;;;;1.90;1.73;;;26.70;76.10;;;;;;4975009;28;20445;-82
2022/08/03 08:32:47;;;;;;;1.50;1.40;;;26.70;76.00;;;;;;4974999;28;20445;-83
2022/08/03 08:35:15;;;;;;;2.07;1.50;;;26.70;76.10;;;;;;4974910;28;20489;-82
2022/08/03 08:37:42;;;;;;;2.17;1.97;;;26.70;76.10;;;;;;4975076;28;20452;-95
2022/08/03 08:40:10;;;;;;;2.20;2.00;;;26.70;76.10;;;;;;4974562;28;20523;-82
2022/08/03 08:42:38;;;;;;;2.03;1.93;;;26.70;76.10;;;;;;4974824;28;20456;-82
2022/08/03 08:45:07;;;;;;;1.77;1.67;;;26.70;76.10;;;;;;4975916;28;20456;-92
2022/08/03 08:47:38;;;;;;;1.77;1.67;;;26.70;76.00;;;;;;4978834;28;20481;-81
2022/08/03 08:50:09;;;;;;;1.90;1.70;;;26.70;76.00;;;;;;4978938;28;20536;-82
2022/08/03 08:52:39;;;;;;;1.60;1.50;;;26.70;76.00;;;;;;4978765;28;20527;-83
2022/08/03 08:55:09;;;;;;;2.03;1.73;;;26.70;76.00;;;;;;4978587;28;20572;-82
2022/08/03 08:57:37;;;;;;;2.40;1.50;;;26.70;76.20;;;;;;4978655;28;20472;-92
2022/08/03 09:00:06;;;;;;;2.00;1.77;;;26.80;76.00;;;;;;4978911;28;20441;-88
2022/08/03 09:02:34;;;;;;;2.10;1.73;;;26.80;76.10;;;;;;4978622;28;20955;-92
2022/08/03 09:05:01;;;;;;;1.70;1.60;;;26.80;76.20;;;;;;4978515;28;20441;-93
2022/08/03 09:07:29;;;;;;;2.00;1.80;;;26.80;76.10;;;;;;4978286;28;20536;-83
2022/08/03 09:09:56;;;;;;;1.50;1.40;;;26.80;76.10;;;;;;4978601;28;20449;-82
2022/08/03 09:12:23;;;;;;;3.03;1.63;;;26.80;76.10;;;;;;4978460;28;20503;-82
2022/08/03 09:14:50;;;;;;;2.10;1.90;;;26.80;76.10;;;;;;4978564;28;20996;-83
2022/08/03 09:17:17;;;;;;;1.73;1.63;;;26.80;76.10;;;;;;4978245;28;20540;-82
2022/08/03 09:20:04;;;;;;;2.63;1.90;;;26.80;76.20;;;;;;4978111;28;20464;-84
2022/08/03 09:22:32;;;;;;;3.63;1.77;;;26.80;76.10;;;;;;4978035;28;20469;-83
2022/08/03 09:25:02;;;;;;;4.30;1.50;;;26.70;76.20;;;;;;4978292;28;20452;-85
2022/08/03 09:27:29;;;;;;;2.60;1.90;;;26.80;76.30;;;;;;4978071;28;20504;-90
2022/08/03 09:29:57;;;;;;;1.97;1.87;;;26.80;76.20;;;;;;4977578;28;20457;-95
2022/08/03 09:32:25;;;;;;;2.50;2.10;;;26.80;76.10;;;;;;4979277;28;20447;-82
2022/08/03 09:34:53;;;;;;;1.50;1.40;;;26.80;76.20;;;;;;4979116;28;20925;-82
2022/08/03 09:37:24;;;;;;;2.90;2.00;;;26.80;76.20;;;;;;4976863;28;20449;-93
2022/08/03 09:39:51;;;;;;;1.70;1.60;;;26.80;76.30;;;;;;4977207;28;20488;-82
2022/08/03 09:42:21;;;;;;;1.80;1.70;;;26.80;76.40;;;;;;4977215;28;20452;-82
2022/08/03 09:44:49;;;;;;;2.40;2.20;;;26.80;76.40;;;;;;4977574;28;20441;-83
2022/08/03 09:47:26;;;;;;;1.70;1.60;;;26.80;76.50;;;;;;4978866;28;20472;-81
2022/08/03 09:50:00;;;;;;;1.97;1.80;;;26.80;76.60;;;;;;4978772;28;20449;-83
2022/08/03 09:52:31;;;;;;;1.60;1.50;;;26.80;76.60;;;;;;4978687;28;20563;-82
2022/08/03 09:55:00;;;;;;;1.70;1.53;;;26.80;76.60;;;;;;4976508;28;20524;-95
2022/08/03 09:57:29;;;;;;;2.33;2.13;;;26.80;76.80;;;;;;4976411;28;20452;-93
2022/08/03 10:00:09;;;;;;;1.57;1.47;;;26.80;76.90;;;;;;4982105;28;20445;-86
2022/08/03 10:02:37;;;;;;;2.53;2.03;;;26.80;76.80;;;;;;4987017;28;20445;-82
2022/08/03 10:05:07;;;;;;;4.70;1.70;;;26.80;77.10;;;;;;4985447;28;20515;-80
2022/08/03 10:07:43;;;;;;;2.37;1.60;;;26.80;77.10;;;;;;4980926;28;20533;-85
2022/08/03 10:10:10;;;;;;;1.60;1.50;;;26.80;77.10;;;;;;4977822;28;20449;-81
2022/08/03 10:12:37;;;;;;;2.07;1.70;;;26.80;77.10;;;;;;4976859;28;20809;-80
2022/08/03 10:15:05;;;;;;;2.10;1.90;;;26.80;77.40;;;;;;4976147;28;20854;-81
2022/08/03 10:17:32;;;;;;;1.67;1.50;;;26.80;77.40;;;;;;4975556;28;20449;-81
2022/08/03 10:19:59;;;;;;;4.00;1.90;;;26.80;77.20;;;;;;4975237;28;20456;-81
2022/08/03 10:22:32;;;;;;;1.70;1.60;;;26.90;77.20;;;;;;4974927;28;20565;-81
2022/08/03 10:25:02;;;;;;;2.80;1.33;;;26.90;77.10;;;;;;4975091;28;20809;-81
2022/08/03 10:27:33;;;;;;;1.97;1.50;;;26.90;77.10;;;;;;4974868;28;20537;-81
2022/08/03 10:30:04;;;;;;;1.60;1.50;;;26.80;77.00;;;;;;4976192;28;20959;-81
2022/08/03 10:32:37;;;;;;;1.60;1.50;;;26.90;77.10;;;;;;4976118;28;20460;-81
2022/08/03 10:35:06;;;;;;;1.80;1.40;;;26.90;77.00;;;;;;4975703;28;20853;-81
2022/08/03 10:37:39;;;;;;;3.13;2.00;;;26.80;77.00;;;;;;4976324;28;20775;-81
2022/08/03 10:40:08;;;;;;;1.60;1.30;;;26.90;77.10;;;;;;4975350;28;20551;-81
2022/08/03 10:42:36;;;;;;;1.63;1.53;;;26.80;77.00;;;;;;4977102;28;20441;-81
2022/08/03 10:45:06;;;;;;;1.40;1.30;;;26.90;77.10;;;;;;4976233;28;20536;-82
2022/08/03 10:47:35;;;;;;;1.50;1.40;;;26.90;77.10;;;;;;4976435;28;20456;-82
2022/08/03 10:50:02;;;;;;;1.60;1.50;;;26.90;77.10;;;;;;4976451;28;20434;-81
2022/08/03 10:52:29;;;;;;;2.53;1.60;;;26.90;77.20;;;;;;4977235;28;20548;-96
2022/08/03 10:57:52;;;;;;;1.97;1.80;;;26.90;77.20;;;;;;4976002;28;20492;-83
2022/08/03 11:00:21;;;;;;;4.40;1.60;;;26.90;77.10;;;;;;4979762;28;20948;-83
2022/08/03 11:03:07;;;;;;;1.80;1.70;;;26.90;77.20;;;;;;4981316;28;20480;-81
2022/08/03 11:05:36;;;;;;;2.47;1.60;;;26.90;77.10;;;;;;4975734;28;20508;-82
2022/08/03 11:08:29;;;;;;;5.53;2.40;;;26.80;77.10;;;;;;4975353;28;20441;-95
2022/08/03 11:11:00;;;;;;;1.50;1.40;;;26.90;76.90;;;;;;4976868;28;20528;-86
2022/08/03 11:13:30;;;;;;;3.53;1.53;;;26.80;77.10;;;;;;4976818;28;20536;-88
2022/08/03 11:15:59;;;;;;;2.23;1.50;;;26.90;77.10;;;;;;4976714;28;20829;-88
2022/08/03 11:18:26;;;;;;;1.43;1.33;;;26.80;77.00;;;;;;4977511;28;20496;-88
2022/08/03 12:03:23;;;;;;;1.23;1.13;;;26.80;77.30;;;;;;4975256;28;20408;-86
2022/08/03 12:05:51;;;;;;;1.20;1.10;;;26.80;77.40;;;;;;4974204;28;20620;-83
2022/08/03 12:08:29;;;;;;;3.53;1.33;;;26.80;77.40;;;;;;4974102;28;20448;-83
2022/08/03 12:10:58;;;;;;;1.80;1.50;;;26.80;77.30;;;;;;4975034;28;20441;-87
2022/08/03 12:13:26;;;;;;;2.43;1.70;;;26.90;78.30;;;;;;4974552;28;20437;-86
2022/08/03 12:15:55;;;;;;;3.30;1.57;;;26.90;77.30;;;;;;4974688;28;21010;-87
2022/08/03 12:18:24;;;;;;;2.33;1.80;;;26.90;77.30;;;;;;4975504;28;20568;-86
2022/08/03 12:20:53;;;;;;;2.83;1.60;;;26.90;77.10;;;;;;4974458;28;20445;-87
2022/08/03 12:23:20;;;;;;;2.33;1.60;;;26.90;77.10;;;;;;4975062;28;20504;-87
2022/08/03 12:25:48;;;;;;;2.47;1.40;;;26.90;77.10;;;;;;4976095;28;20449;-87
2022/08/03 12:28:17;;;;;;;4.63;1.70;;;26.90;77.10;;;;;;4974617;28;20481;-88
2022/08/03 12:30:49;;;;;;;1.77;1.67;;;27.00;77.10;;;;;;4974270;28;20512;-87
2022/08/03 12:33:21;;;;;;;2.17;1.50;;;26.90;77.00;;;;;;4974416;28;20447;-87
2022/08/03 12:36:07;;;;;;;4.87;1.87;;;27.00;77.00;;;;;;4974181;28;20492;-87
2022/08/03 12:38:35;;;;;;;1.97;1.67;;;27.00;77.00;;;;;;4974207;28;20975;-88
2022/08/03 12:41:04;;;;;;;2.03;1.53;;;27.00;77.00;;;;;;4974158;28;20456;-88
2022/08/03 12:43:32;;;;;;;2.00;1.50;;;27.00;77.00;;;;;;4974115;28;20447;-87
2022/08/03 12:46:13;;;;;;;3.93;1.50;;;27.00;77.00;;;;;;4974319;28;20524;-87
2022/08/03 12:49:05;;;;;;;1.63;1.47;;;27.00;76.90;;;;;;4974634;28;20457;-88
2022/08/03 12:51:35;;;;;;;2.10;1.90;;;27.00;76.90;;;;;;4972592;28;20477;-88
2022/08/03 12:54:03;;;;;;;2.07;1.23;;;26.90;77.00;;;;;;4974710;28;20496;-88
2022/08/03 12:56:31;;;;;;;8.40;1.70;;;26.90;77.00;;;;;;4974113;28;20595;-87
2022/08/03 12:58:57;;;;;;;2.20;1.27;;;26.90;76.90;;;;;;4974409;28;20459;-87
2022/08/03 13:01:26;;;;;;;2.30;1.50;;;27.00;77.00;;;;;;4974468;28;20442;-87
2022/08/03 13:03:53;;;;;;;1.20;1.10;;;26.90;76.90;;;;;;4974629;28;20464;-88
2022/08/03 13:06:23;;;;;;;4.00;1.37;;;27.00;77.00;;;;;;4974544;28;20536;-88
2022/08/03 13:09:02;;;;;;;2.57;1.37;;;27.00;77.00;;;;;;4974538;28;20811;-87
2022/08/03 13:11:29;;;;;;;1.37;1.27;;;27.00;76.90;;;;;;4974403;28;20505;-87
2022/08/03 13:13:56;;;;;;;2.30;1.33;;;27.00;77.00;;;;;;4974564;28;20527;-87
2022/08/03 13:16:23;;;;;;;1.60;1.30;;;27.00;77.00;;;;;;4974552;28;20489;-88
2022/08/03 13:18:52;;;;;;;1.20;1.10;;;27.00;76.90;;;;;;4974442;28;20459;-86
2022/08/03 13:21:20;;;;;;;1.90;1.63;;;27.00;77.00;;;;;;4974470;28;20955;-87
2022/08/03 13:23:47;;;;;;;1.43;1.30;;;27.00;76.90;;;;;;4974089;28;20451;-86
2022/08/03 13:26:15;;;;;;;3.47;1.53;;;27.00;77.00;;;;;;4974174;28;20449;-86
2022/08/03 13:28:42;;;;;;;1.20;1.10;;;27.00;77.00;;;;;;4974149;28;20445;-87
2022/08/03 13:31:09;;;;;;;1.60;1.17;;;27.00;76.90;;;;;;4974240;28;20441;-88
2022/08/03 13:33:37;;;;;;;2.00;1.50;;;27.00;76.90;;;;;;4977360;28;20472;-87
2022/08/03 13:36:05;;;;;;;1.97;1.47;;;27.00;77.00;;;;;;4977604;28;20473;-87
2022/08/03 13:38:31;;;;;;;1.50;1.40;;;27.00;76.90;;;;;;4977598;28;20448;-88
2022/08/03 13:40:59;;;;;;;2.40;1.10;;;27.00;76.90;;;;;;4977762;28;20449;-87
2022/08/03 13:43:28;;;;;;;3.30;1.27;;;27.00;76.90;;;;;;4977739;28;20448;-87
2022/08/03 13:45:54;;;;;;;1.93;1.27;;;27.00;76.90;;;;;;4977791;28;20445;-87
2022/08/03 13:48:21;;;;;;;1.73;1.57;;;27.00;76.90;;;;;;4977741;28;20528;-88